Time;durP1;ratioP1;P1;durP2;ratioP2;P2;SDS_P1;SDS_P2;PMS_P1;PMS_P2;Temp;Humidity;BMP_temperature;BMP_pressure;BME280_temperature;BME280_humidity;BME280_pressure;Samples;Min_cycle;Max_cycle;Signal;HPM_P1;HPM_P2
2020/12/23 00:00:07;;;;;;;6.45;3.38;;;21.70;40.20;;;;;;4993489;28;20402;-52
2020/12/23 00:02:33;;;;;;;5.18;3.00;;;21.70;40.20;;;;;;4993466;28;20414;-52
2020/12/23 00:04:59;;;;;;;4.87;3.20;;;21.70;40.20;;;;;;4993391;28;20395;-52
2020/12/23 00:07:24;;;;;;;5.22;3.20;;;21.70;40.20;;;;;;4993580;28;20821;-52
2020/12/23 00:09:50;;;;;;;6.17;3.10;;;21.70;40.10;;;;;;4993017;28;20402;-52
2020/12/23 00:12:16;;;;;;;5.82;3.13;;;21.70;40.10;;;;;;4993165;28;20399;-52
2020/12/23 00:14:41;;;;;;;5.37;3.20;;;21.70;40.10;;;;;;4993335;28;20399;-52
2020/12/23 00:17:07;;;;;;;5.18;2.70;;;21.70;40.20;;;;;;4991931;28;20930;-52
2020/12/23 00:19:33;;;;;;;5.07;2.60;;;21.70;40.00;;;;;;4993061;28;20430;-52
2020/12/23 00:21:59;;;;;;;5.20;2.72;;;21.70;40.10;;;;;;4992837;28;20390;-52
2020/12/23 00:24:25;;;;;;;5.05;2.88;;;21.70;40.10;;;;;;4993074;28;20554;-52
2020/12/23 00:26:50;;;;;;;4.90;2.70;;;21.60;40.00;;;;;;4992956;28;20887;-52
2020/12/23 00:29:16;;;;;;;4.53;2.60;;;21.60;39.90;;;;;;4992998;28;20477;-52
2020/12/23 00:31:41;;;;;;;3.80;2.40;;;21.60;40.00;;;;;;4992485;28;20394;-53
2020/12/23 00:34:07;;;;;;;3.70;2.17;;;21.60;40.00;;;;;;4992797;28;20449;-52
2020/12/23 00:36:33;;;;;;;3.30;2.30;;;21.60;40.00;;;;;;4991763;28;20394;-52
2020/12/23 00:38:59;;;;;;;3.60;2.40;;;21.60;40.00;;;;;;4992814;28;20414;-52
2020/12/23 00:41:24;;;;;;;3.95;2.33;;;21.60;39.90;;;;;;4992888;28;20411;-52
2020/12/23 00:43:50;;;;;;;3.50;2.30;;;21.60;39.90;;;;;;4992417;28;20390;-57
2020/12/23 00:46:16;;;;;;;3.20;2.08;;;21.60;39.90;;;;;;4992712;28;20473;-52
2020/12/23 00:48:42;;;;;;;3.20;2.03;;;21.60;39.80;;;;;;4992415;28;20860;-52
2020/12/23 00:51:15;;;;;;;3.13;1.90;;;21.60;39.80;;;;;;4992152;28;20409;-52
2020/12/23 00:53:42;;;;;;;3.60;1.98;;;21.60;39.90;;;;;;4974910;28;20490;-52
2020/12/23 00:56:08;;;;;;;3.13;1.80;;;21.60;39.70;;;;;;4992580;28;20391;-52
2020/12/23 00:58:34;;;;;;;3.15;1.98;;;21.60;39.80;;;;;;4992452;28;20403;-52
2020/12/23 01:01:00;;;;;;;3.00;1.90;;;21.60;39.70;;;;;;4992501;28;20398;-52
2020/12/23 01:03:25;;;;;;;2.85;1.70;;;21.60;39.60;;;;;;4992338;28;20410;-52
2020/12/23 01:05:52;;;;;;;3.00;1.80;;;21.60;39.60;;;;;;4991965;28;20407;-52
2020/12/23 01:08:18;;;;;;;2.90;1.77;;;21.60;39.60;;;;;;4992631;28;20787;-52
2020/12/23 01:10:45;;;;;;;2.63;1.80;;;21.60;39.60;;;;;;4990576;28;21372;-52
2020/12/23 01:13:12;;;;;;;2.47;1.67;;;21.60;39.60;;;;;;4992246;28;20397;-52
2020/12/23 01:15:38;;;;;;;2.47;1.50;;;21.50;39.50;;;;;;4992135;28;20403;-52
2020/12/23 01:18:04;;;;;;;3.05;1.70;;;21.60;39.60;;;;;;4974550;28;20496;-52
2020/12/23 01:20:29;;;;;;;2.80;1.93;;;21.50;39.50;;;;;;4992270;28;20387;-53
2020/12/23 01:22:55;;;;;;;2.40;1.52;;;21.60;39.60;;;;;;4992064;28;20501;-52
2020/12/23 01:25:20;;;;;;;2.10;1.50;;;21.50;39.50;;;;;;4992138;28;20407;-53
2020/12/23 01:27:46;;;;;;;2.78;1.58;;;21.50;39.50;;;;;;4991641;28;20910;-53
2020/12/23 01:30:13;;;;;;;2.60;1.57;;;21.50;39.50;;;;;;4991931;28;20437;-53
2020/12/23 01:32:38;;;;;;;2.40;1.60;;;21.50;39.50;;;;;;4991817;28;20421;-52
2020/12/23 01:35:04;;;;;;;2.55;1.50;;;21.50;39.50;;;;;;4992013;28;20394;-53
2020/12/23 01:37:30;;;;;;;2.53;1.50;;;21.50;39.40;;;;;;4991993;28;20403;-52
2020/12/23 01:39:55;;;;;;;2.03;1.40;;;21.50;39.40;;;;;;4991521;28;20441;-52
2020/12/23 01:42:21;;;;;;;2.20;1.50;;;21.50;39.40;;;;;;4992070;28;20398;-52
2020/12/23 01:44:46;;;;;;;2.53;1.50;;;21.50;39.40;;;;;;4992117;28;20457;-52
2020/12/23 01:47:21;;;;;;;2.60;1.35;;;21.50;39.90;;;;;;4991807;28;20432;-52
2020/12/23 01:49:47;;;;;;;2.17;1.30;;;21.50;39.30;;;;;;4991314;28;20387;-52
2020/12/23 01:52:14;;;;;;;2.15;1.40;;;21.50;39.30;;;;;;4991832;28;20403;-52
2020/12/23 01:54:40;;;;;;;1.80;1.20;;;21.50;39.30;;;;;;4991820;28;20779;-52
2020/12/23 01:57:08;;;;;;;2.00;1.40;;;21.50;39.30;;;;;;4991918;28;20394;-52
2020/12/23 01:59:35;;;;;;;2.42;1.40;;;21.50;39.20;;;;;;4991807;28;20401;-52
2020/12/23 02:02:37;;;;;;;1.90;1.30;;;21.40;39.20;;;;;;4994097;28;20410;-52
2020/12/23 02:05:08;;;;;;;2.20;1.23;;;21.40;39.10;;;;;;4995482;28;20440;-52
2020/12/23 02:07:35;;;;;;;2.17;1.33;;;21.40;39.20;;;;;;4995682;28;20404;-52
2020/12/23 02:10:03;;;;;;;1.80;1.30;;;21.40;39.10;;;;;;4995075;28;20785;-52
2020/12/23 02:12:29;;;;;;;1.58;1.10;;;21.40;39.10;;;;;;4995660;28;20406;-52
2020/12/23 02:14:56;;;;;;;1.80;1.20;;;21.40;39.10;;;;;;4995591;28;20406;-53
2020/12/23 02:17:22;;;;;;;1.58;1.30;;;21.50;39.10;;;;;;4995499;28;20909;-52
2020/12/23 02:19:51;;;;;;;2.78;1.30;;;21.40;39.00;;;;;;4995282;28;20398;-52
2020/12/23 02:22:21;;;;;;;1.95;1.15;;;21.40;39.00;;;;;;4995353;28;20394;-52
2020/12/23 02:24:50;;;;;;;1.70;1.20;;;21.40;39.10;;;;;;4995663;28;20481;-53
2020/12/23 02:27:16;;;;;;;1.70;1.20;;;21.40;39.00;;;;;;4993998;28;20854;-53
2020/12/23 02:29:44;;;;;;;1.70;1.10;;;21.40;39.00;;;;;;4994837;28;20747;-53
2020/12/23 02:32:10;;;;;;;2.10;1.00;;;21.40;39.00;;;;;;4995071;28;20970;-52
2020/12/23 02:34:36;;;;;;;1.40;1.00;;;21.40;38.90;;;;;;4995033;28;20473;-53
2020/12/23 02:37:03;;;;;;;1.33;0.97;;;21.40;38.90;;;;;;4994940;28;20390;-53
2020/12/23 02:39:29;;;;;;;1.73;0.90;;;21.40;38.90;;;;;;4994857;28;20394;-52
2020/12/23 02:41:58;;;;;;;1.70;1.10;;;21.40;38.90;;;;;;4994549;28;20399;-53
2020/12/23 02:44:24;;;;;;;1.40;1.00;;;21.40;38.90;;;;;;4994898;28;20414;-53
2020/12/23 02:47:11;;;;;;;2.10;1.10;;;21.40;38.80;;;;;;4995018;28;20473;-52
2020/12/23 02:49:37;;;;;;;1.95;1.02;;;21.40;38.80;;;;;;4994762;28;20387;-52
2020/12/23 02:52:03;;;;;;;2.15;1.15;;;21.40;38.80;;;;;;4994651;28;20401;-52
2020/12/23 02:54:29;;;;;;;1.55;1.00;;;21.40;38.80;;;;;;4995098;28;20806;-53
2020/12/23 02:56:55;;;;;;;1.67;1.00;;;21.30;38.70;;;;;;4994839;28;20931;-52
2020/12/23 02:59:20;;;;;;;1.33;0.93;;;21.30;38.70;;;;;;4994799;28;20449;-53
2020/12/23 03:01:46;;;;;;;1.52;1.00;;;21.30;38.70;;;;;;4992841;28;20763;-53
2020/12/23 03:04:12;;;;;;;1.20;0.97;;;21.30;38.70;;;;;;4994591;28;20398;-53
2020/12/23 03:06:38;;;;;;;1.30;0.97;;;21.30;38.70;;;;;;4994705;28;20425;-52
2020/12/23 03:09:06;;;;;;;1.88;1.05;;;21.30;38.70;;;;;;4994576;28;20390;-53
2020/12/23 03:11:32;;;;;;;1.70;1.07;;;21.30;38.70;;;;;;4994266;28;20409;-53
2020/12/23 03:13:58;;;;;;;1.70;0.90;;;21.30;39.30;;;;;;4993322;28;20391;-53
2020/12/23 03:16:24;;;;;;;1.55;1.05;;;21.30;38.70;;;;;;4994552;28;20390;-53
2020/12/23 03:18:50;;;;;;;1.50;1.00;;;21.30;38.70;;;;;;4994427;28;20395;-52
2020/12/23 03:21:16;;;;;;;1.40;1.00;;;21.30;38.70;;;;;;4994324;28;20438;-52
2020/12/23 03:23:41;;;;;;;1.52;0.90;;;21.30;38.70;;;;;;4994182;28;20473;-53
2020/12/23 03:26:07;;;;;;;1.50;1.00;;;21.30;38.70;;;;;;4993980;28;20425;-53
2020/12/23 03:28:33;;;;;;;1.70;1.00;;;21.30;38.80;;;;;;4994099;28;20477;-52
2020/12/23 03:31:00;;;;;;;1.90;1.00;;;21.20;38.70;;;;;;4994149;28;20402;-53
2020/12/23 03:33:25;;;;;;;1.35;0.95;;;21.30;38.80;;;;;;4994260;28;20732;-53
2020/12/23 03:35:51;;;;;;;1.20;0.90;;;21.20;38.70;;;;;;4993710;28;20405;-53
2020/12/23 03:38:17;;;;;;;1.50;0.95;;;21.30;38.80;;;;;;4994118;28;20383;-53
2020/12/23 03:40:43;;;;;;;1.27;0.80;;;21.20;38.70;;;;;;4993927;28;20907;-52
2020/12/23 03:43:08;;;;;;;1.33;0.93;;;21.20;38.70;;;;;;4994120;28;20390;-52
2020/12/23 03:45:34;;;;;;;1.40;0.90;;;21.20;38.80;;;;;;4993757;28;20759;-53
2020/12/23 03:47:59;;;;;;;1.40;0.90;;;21.20;38.70;;;;;;4993395;28;20712;-52
2020/12/23 03:50:25;;;;;;;1.70;1.00;;;21.20;38.70;;;;;;4993935;28;20383;-53
2020/12/23 03:52:51;;;;;;;1.95;0.90;;;21.30;38.70;;;;;;4992598;28;20874;-52
2020/12/23 03:55:16;;;;;;;1.17;0.80;;;21.20;38.70;;;;;;4993764;28;20401;-53
2020/12/23 03:57:42;;;;;;;1.30;0.80;;;21.20;38.70;;;;;;4993592;28;20386;-53
2020/12/23 04:00:10;;;;;;;1.20;0.73;;;21.20;38.80;;;;;;4993309;28;20491;-52
2020/12/23 04:02:35;;;;;;;1.45;0.80;;;21.20;38.60;;;;;;4992992;28;20493;-53
2020/12/23 04:05:01;;;;;;;2.07;1.03;;;21.20;38.60;;;;;;4992849;28;20485;-54
2020/12/23 04:07:27;;;;;;;1.88;0.80;;;21.20;38.90;;;;;;4993688;28;20413;-53
2020/12/23 04:09:53;;;;;;;1.63;1.00;;;21.30;38.60;;;;;;4948216;28;20413;-53
2020/12/23 04:12:19;;;;;;;1.73;1.00;;;21.30;38.50;;;;;;5002358;28;20399;-52
2020/12/23 04:14:45;;;;;;;1.85;0.88;;;21.30;39.10;;;;;;4993450;28;20828;-52
2020/12/23 04:17:11;;;;;;;1.70;0.90;;;21.30;38.90;;;;;;4993087;28;20398;-53
2020/12/23 04:19:37;;;;;;;2.33;0.90;;;21.30;39.70;;;;;;4993189;28;20876;-53
2020/12/23 04:22:03;;;;;;;3.40;0.73;;;21.30;40.10;;;;;;4992606;28;20502;-53
2020/12/23 04:24:28;;;;;;;4.25;1.10;;;21.30;40.50;;;;;;4992071;28;20493;-52
2020/12/23 04:26:54;;;;;;;3.73;0.90;;;21.30;41.00;;;;;;4992949;28;20428;-52
2020/12/23 04:29:20;;;;;;;2.10;0.90;;;21.40;41.30;;;;;;4993133;28;20489;-52
2020/12/23 04:31:45;;;;;;;1.50;0.83;;;21.30;41.40;;;;;;4992414;28;20403;-52
2020/12/23 04:34:11;;;;;;;2.58;0.77;;;21.40;41.10;;;;;;4992569;28;20857;-52
2020/12/23 04:36:37;;;;;;;2.05;0.90;;;21.40;41.40;;;;;;4992990;28;20747;-52
2020/12/23 04:39:03;;;;;;;3.03;0.80;;;21.40;41.80;;;;;;4992651;28;20949;-53
2020/12/23 04:41:29;;;;;;;3.25;1.08;;;21.40;41.30;;;;;;4992801;28;20402;-52
2020/12/23 04:43:55;;;;;;;4.85;0.98;;;21.40;41.30;;;;;;4992379;28;20383;-52
2020/12/23 04:46:28;;;;;;;5.00;0.90;;;21.40;41.00;;;;;;4992717;28;20419;-53
2020/12/23 04:48:57;;;;;;;3.28;0.80;;;21.40;41.20;;;;;;4992172;28;20459;-53
2020/12/23 04:51:32;;;;;;;1.90;0.80;;;21.40;41.10;;;;;;4992612;28;20398;-53
2020/12/23 04:54:00;;;;;;;4.38;0.90;;;21.40;41.00;;;;;;4990753;28;20405;-53
2020/12/23 04:56:30;;;;;;;2.60;0.80;;;21.50;41.30;;;;;;4992027;28;20382;-52
2020/12/23 04:58:56;;;;;;;1.40;0.82;;;21.40;41.20;;;;;;4992339;28;20382;-52
2020/12/23 05:01:22;;;;;;;3.57;0.90;;;21.50;40.90;;;;;;4991207;28;21098;-53
2020/12/23 05:03:49;;;;;;;2.35;0.90;;;21.50;41.10;;;;;;4991044;28;20398;-53
2020/12/23 05:06:15;;;;;;;2.15;0.90;;;21.40;41.10;;;;;;4991811;28;20422;-53
2020/12/23 05:08:41;;;;;;;2.65;0.88;;;21.40;40.90;;;;;;4991489;28;20882;-53
2020/12/23 05:11:07;;;;;;;2.17;0.77;;;21.40;40.90;;;;;;4990913;28;20383;-53
2020/12/23 05:13:38;;;;;;;6.40;0.80;;;21.50;40.60;;;;;;4991707;28;20409;-53
2020/12/23 05:16:11;;;;;;;2.25;0.90;;;21.50;40.50;;;;;;4990416;28;20379;-53
2020/12/23 05:18:40;;;;;;;3.83;0.82;;;21.50;40.30;;;;;;4991174;28;20391;-53
2020/12/23 05:21:14;;;;;;;3.08;0.80;;;21.40;40.50;;;;;;4991193;28;20391;-53
2020/12/23 05:23:44;;;;;;;4.32;0.90;;;21.40;40.70;;;;;;4992543;28;20386;-53
2020/12/23 05:26:11;;;;;;;4.07;0.80;;;21.40;40.10;;;;;;4991943;28;20465;-53
2020/12/23 05:28:37;;;;;;;5.68;1.08;;;21.30;39.60;;;;;;4992232;28;20422;-53
2020/12/23 05:31:04;;;;;;;5.65;0.95;;;21.30;40.10;;;;;;4992048;28;20861;-53
2020/12/23 05:33:37;;;;;;;3.03;0.70;;;21.30;39.70;;;;;;4991875;28;20391;-53
2020/12/23 05:36:04;;;;;;;6.57;1.00;;;21.30;39.10;;;;;;4991311;28;20867;-53
2020/12/23 05:38:31;;;;;;;3.00;0.80;;;21.30;39.10;;;;;;4991773;28;20417;-60
2020/12/23 05:41:03;;;;;;;5.00;0.80;;;21.40;38.90;;;;;;4991932;28;20933;-52
2020/12/23 05:43:29;;;;;;;4.18;0.93;;;21.40;38.80;;;;;;4992062;28;20403;-52
2020/12/23 05:46:02;;;;;;;3.72;0.80;;;21.30;38.60;;;;;;4991512;28;20980;-52
2020/12/23 05:48:29;;;;;;;4.60;1.20;;;21.30;38.60;;;;;;4991900;28;20445;-52
2020/12/23 05:50:55;;;;;;;2.00;1.13;;;21.30;38.50;;;;;;4991877;28;20429;-52
2020/12/23 05:53:21;;;;;;;3.80;1.60;;;21.30;38.50;;;;;;4991945;28;20418;-52
2020/12/23 05:55:51;;;;;;;1.52;1.20;;;21.30;38.50;;;;;;4991780;28;20434;-52
2020/12/23 05:58:23;;;;;;;2.40;1.50;;;21.30;38.50;;;;;;4992032;28;20453;-52
2020/12/23 06:00:51;;;;;;;3.38;1.58;;;21.30;38.40;;;;;;4990581;28;20425;-52
2020/12/23 06:03:23;;;;;;;3.22;1.77;;;21.30;38.40;;;;;;4991728;28;20934;-52
2020/12/23 06:06:02;;;;;;;2.67;1.70;;;21.30;38.30;;;;;;4991622;28;20414;-53
2020/12/23 06:08:33;;;;;;;2.92;1.70;;;21.30;38.20;;;;;;4991721;28;20401;-52
2020/12/23 06:11:24;;;;;;;3.40;1.60;;;21.30;38.20;;;;;;4991656;28;20755;-52
2020/12/23 06:14:04;;;;;;;4.63;1.60;;;21.20;38.20;;;;;;4991589;28;20397;-52
2020/12/23 06:16:34;;;;;;;3.63;1.60;;;21.20;38.20;;;;;;4991828;28;20390;-52
2020/12/23 06:19:02;;;;;;;2.47;1.50;;;21.20;38.10;;;;;;4992303;28;20378;-52
2020/12/23 06:21:29;;;;;;;3.55;1.55;;;21.20;38.10;;;;;;4991803;28;20391;-52
2020/12/23 06:24:02;;;;;;;2.90;1.58;;;21.20;38.10;;;;;;4991232;28;20500;-53
2020/12/23 06:26:32;;;;;;;3.42;2.35;;;21.20;38.10;;;;;;4991742;28;20414;-52
2020/12/23 06:29:00;;;;;;;3.58;2.13;;;21.20;38.20;;;;;;4991644;28;20397;-52
2020/12/23 06:31:32;;;;;;;3.50;2.10;;;21.20;38.10;;;;;;4991677;28;20427;-52
2020/12/23 06:33:58;;;;;;;5.18;3.10;;;21.20;38.10;;;;;;4990907;28;20425;-53
2020/12/23 06:36:29;;;;;;;8.10;4.88;;;21.10;38.00;;;;;;4990434;28;20403;-52
2020/12/23 06:39:16;;;;;;;7.78;4.65;;;21.10;38.20;;;;;;4990614;28;20394;-52
2020/12/23 06:41:42;;;;;;;6.55;4.60;;;21.10;38.70;;;;;;4991103;28;20401;-53
2020/12/23 06:44:09;;;;;;;7.70;4.47;;;21.10;38.60;;;;;;4990558;28;20399;-53
2020/12/23 06:47:00;;;;;;;12.38;4.90;;;21.10;38.70;;;;;;4991445;28;20445;-53
2020/12/23 06:49:42;;;;;;;9.50;5.20;;;21.10;38.50;;;;;;4986637;28;20402;-52
2020/12/23 06:52:24;;;;;;;9.60;6.07;;;21.10;38.80;;;;;;4994524;28;20468;-53
2020/12/23 06:54:52;;;;;;;9.43;5.70;;;21.20;38.50;;;;;;4994962;28;20394;-52
2020/12/23 06:57:36;;;;;;;8.27;5.55;;;21.10;38.30;;;;;;4993698;28;20407;-53
2020/12/23 07:00:19;;;;;;;7.13;4.82;;;21.10;38.30;;;;;;4994406;28;20541;-53
2020/12/23 07:02:49;;;;;;;7.13;4.30;;;21.10;38.20;;;;;;4994515;28;20457;-52
2020/12/23 07:05:21;;;;;;;5.33;3.90;;;21.20;38.20;;;;;;4994671;28;20473;-52
2020/12/23 07:07:51;;;;;;;6.28;3.90;;;21.10;38.10;;;;;;4994662;28;20452;-52
2020/12/23 07:10:24;;;;;;;5.72;3.67;;;21.10;38.00;;;;;;4994108;28;20859;-52
2020/12/23 07:12:57;;;;;;;5.63;3.70;;;21.20;38.00;;;;;;4994509;28;20394;-52
2020/12/23 07:15:34;;;;;;;4.63;3.28;;;21.10;38.00;;;;;;4994537;28;20401;-52
2020/12/23 07:18:04;;;;;;;6.00;3.50;;;21.10;38.00;;;;;;4994167;28;20422;-52
2020/12/23 07:20:47;;;;;;;5.55;4.07;;;21.10;38.00;;;;;;4994496;28;20386;-52
2020/12/23 07:23:15;;;;;;;9.10;4.55;;;21.10;38.10;;;;;;4993794;28;20493;-52
2020/12/23 07:25:49;;;;;;;7.18;4.00;;;21.00;38.50;;;;;;4993718;28;20810;-52
2020/12/23 07:28:17;;;;;;;6.72;4.10;;;21.00;39.00;;;;;;4993872;28;20413;-53
2020/12/23 07:30:43;;;;;;;6.18;3.70;;;21.10;39.10;;;;;;4994243;28;20391;-52
2020/12/23 07:33:22;;;;;;;6.97;3.90;;;21.10;38.70;;;;;;4994180;28;20406;-52
2020/12/23 07:35:53;;;;;;;5.68;3.45;;;21.20;38.70;;;;;;4994207;28;20882;-52
2020/12/23 07:38:21;;;;;;;5.53;3.38;;;21.20;38.60;;;;;;4993862;28;20394;-52
2020/12/23 07:40:47;;;;;;;5.63;3.13;;;21.20;39.20;;;;;;4994220;28;20934;-52
2020/12/23 07:43:14;;;;;;;5.50;3.50;;;21.20;38.80;;;;;;4993774;28;20448;-52
2020/12/23 07:45:41;;;;;;;4.97;3.10;;;21.20;39.10;;;;;;4992537;28;20469;-52
2020/12/23 07:48:09;;;;;;;6.75;3.35;;;21.20;39.30;;;;;;4993469;28;20390;-52
2020/12/23 07:50:40;;;;;;;5.85;3.05;;;21.20;39.20;;;;;;4994083;28;20390;-53
2020/12/23 07:53:27;;;;;;;5.75;3.10;;;21.20;39.40;;;;;;4976422;28;20395;-52
2020/12/23 07:56:01;;;;;;;4.88;2.80;;;21.30;38.90;;;;;;4993538;28;20418;-52
2020/12/23 07:58:30;;;;;;;4.35;3.10;;;21.20;38.50;;;;;;4993334;28;20456;-52
2020/12/23 08:00:57;;;;;;;4.93;3.53;;;21.20;38.80;;;;;;4993321;28;20429;-52
2020/12/23 08:03:26;;;;;;;5.25;3.05;;;21.20;38.20;;;;;;4993545;28;20414;-52
2020/12/23 08:06:10;;;;;;;5.47;3.30;;;21.20;38.10;;;;;;4993234;28;20414;-52
2020/12/23 08:08:37;;;;;;;5.15;3.58;;;21.30;38.10;;;;;;4993576;28;20386;-52
2020/12/23 08:11:12;;;;;;;6.53;4.20;;;21.30;38.00;;;;;;4993357;28;20391;-52
2020/12/23 08:13:38;;;;;;;7.35;4.28;;;21.30;37.90;;;;;;4993538;28;20389;-52
2020/12/23 08:16:12;;;;;;;7.70;4.65;;;21.30;37.90;;;;;;4992874;28;20394;-52
2020/12/23 08:18:39;;;;;;;5.22;4.03;;;21.30;37.80;;;;;;4992185;28;20397;-51
2020/12/23 08:21:17;;;;;;;6.57;4.45;;;21.30;37.90;;;;;;4993273;28;20387;-51
2020/12/23 08:23:43;;;;;;;5.80;4.18;;;21.30;37.80;;;;;;4993283;28;20395;-51
2020/12/23 08:26:10;;;;;;;6.35;4.35;;;21.30;37.70;;;;;;4992584;28;20902;-51
2020/12/23 08:28:40;;;;;;;5.70;3.55;;;21.30;37.70;;;;;;4993157;28;20465;-51
2020/12/23 08:31:10;;;;;;;4.95;3.85;;;21.30;37.60;;;;;;4993122;28;20854;-51
2020/12/23 08:33:37;;;;;;;5.30;4.00;;;21.30;37.60;;;;;;4992974;28;20402;-51
2020/12/23 08:36:05;;;;;;;5.43;3.60;;;21.30;37.60;;;;;;4992558;28;20390;-51
2020/12/23 08:38:31;;;;;;;4.43;3.35;;;21.30;37.60;;;;;;4992882;28;20445;-51
2020/12/23 08:40:58;;;;;;;4.65;3.30;;;21.30;37.60;;;;;;4993010;28;20382;-51
2020/12/23 08:43:31;;;;;;;4.60;3.40;;;21.30;37.60;;;;;;4992902;28;20453;-51
2020/12/23 08:45:59;;;;;;;4.25;3.50;;;21.30;37.50;;;;;;4992394;28;20411;-51
2020/12/23 08:48:29;;;;;;;4.25;3.50;;;21.30;37.50;;;;;;4992669;28;20390;-51
2020/12/23 08:50:59;;;;;;;3.45;2.75;;;21.30;37.60;;;;;;4992863;28;20405;-51
2020/12/23 08:53:33;;;;;;;5.20;3.22;;;21.20;37.90;;;;;;4992746;28;20878;-51
2020/12/23 08:56:23;;;;;;;4.07;2.70;;;21.20;37.80;;;;;;4992170;28;20415;-51
2020/12/23 08:58:50;;;;;;;4.70;3.10;;;21.20;37.70;;;;;;4992676;28;20462;-51
2020/12/23 09:01:22;;;;;;;4.82;3.10;;;21.20;37.70;;;;;;4992557;28;20538;-52
2020/12/23 09:04:01;;;;;;;3.33;2.67;;;21.30;37.70;;;;;;4992212;28;20525;-51
2020/12/23 09:06:27;;;;;;;3.60;2.60;;;21.20;37.60;;;;;;4992567;28;20457;-51
2020/12/23 09:08:52;;;;;;;4.07;2.55;;;21.20;37.60;;;;;;4992195;28;20422;-51
2020/12/23 09:11:18;;;;;;;3.23;2.50;;;21.20;38.10;;;;;;4991918;28;20475;-51
2020/12/23 09:13:44;;;;;;;4.93;2.50;;;21.20;37.50;;;;;;4992399;28;20445;-51
2020/12/23 09:16:16;;;;;;;3.63;2.50;;;21.20;37.50;;;;;;4991893;28;20410;-51
2020/12/23 09:18:51;;;;;;;2.97;2.25;;;21.20;37.50;;;;;;4992163;28;20386;-51
2020/12/23 09:21:19;;;;;;;3.33;2.30;;;21.20;37.50;;;;;;4992161;28;20409;-51
2020/12/23 09:23:44;;;;;;;2.60;2.10;;;21.20;37.50;;;;;;4992303;28;20393;-51
2020/12/23 09:26:16;;;;;;;3.40;2.30;;;21.20;37.50;;;;;;4991640;28;20434;-52
2020/12/23 09:28:42;;;;;;;3.00;2.00;;;21.20;37.50;;;;;;4992487;28;20461;-51
2020/12/23 09:31:08;;;;;;;3.08;2.17;;;21.20;37.50;;;;;;4992201;28;21166;-52
2020/12/23 09:33:40;;;;;;;2.80;1.98;;;21.20;37.50;;;;;;4992289;28;20418;-51
2020/12/23 09:36:07;;;;;;;3.25;2.15;;;21.20;37.50;;;;;;4991895;28;20406;-51
2020/12/23 09:38:36;;;;;;;2.58;2.00;;;21.20;37.50;;;;;;4992172;28;20397;-51
2020/12/23 09:41:07;;;;;;;2.60;2.20;;;21.20;37.60;;;;;;4992210;28;20453;-51
2020/12/23 09:43:36;;;;;;;2.85;2.13;;;21.10;37.50;;;;;;4992105;28;20394;-51
2020/12/23 09:46:06;;;;;;;2.97;1.93;;;21.20;37.70;;;;;;4991472;28;20423;-51
2020/12/23 09:48:32;;;;;;;3.40;2.10;;;21.20;37.50;;;;;;4992288;28;20883;-51
2020/12/23 09:50:58;;;;;;;2.70;1.90;;;21.10;37.50;;;;;;4992021;28;20394;-51
2020/12/23 09:53:24;;;;;;;2.90;1.90;;;21.10;37.50;;;;;;4991994;28;20394;-52
2020/12/23 09:55:50;;;;;;;2.83;2.17;;;21.10;37.50;;;;;;4991794;28;20476;-51
2020/12/23 09:58:17;;;;;;;2.70;2.20;;;21.10;37.60;;;;;;4991599;28;21164;-51
2020/12/23 10:00:44;;;;;;;3.08;2.20;;;21.10;37.60;;;;;;4991959;28;20391;-53
2020/12/23 10:03:10;;;;;;;3.30;2.38;;;21.00;37.80;;;;;;4991670;28;20890;-53
2020/12/23 10:05:36;;;;;;;3.30;2.70;;;21.20;37.60;;;;;;4992090;28;20423;-54
2020/12/23 10:08:03;;;;;;;4.10;2.53;;;21.10;37.50;;;;;;4991315;28;20394;-53
2020/12/23 10:10:28;;;;;;;6.28;5.50;;;21.00;37.70;;;;;;4991695;28;20437;-53
2020/12/23 10:12:54;;;;;;;9.00;7.05;;;21.10;37.70;;;;;;4992069;28;20398;-53
2020/12/23 10:15:20;;;;;;;8.03;5.90;;;21.10;37.60;;;;;;4991989;28;20466;-53
2020/12/23 10:17:45;;;;;;;7.70;6.90;;;21.10;37.60;;;;;;4991786;28;20911;-51
2020/12/23 10:20:12;;;;;;;8.57;7.50;;;21.10;37.50;;;;;;4991204;28;20470;-51
2020/12/23 10:22:38;;;;;;;10.35;9.07;;;21.10;37.60;;;;;;4993927;28;20399;-53
2020/12/23 10:25:05;;;;;;;8.85;7.95;;;21.00;37.80;;;;;;4994835;28;20401;-53
2020/12/23 10:27:31;;;;;;;9.00;7.70;;;21.00;38.20;;;;;;4994775;28;20433;-55
2020/12/23 10:29:56;;;;;;;11.53;8.40;;;21.00;38.90;;;;;;4995417;28;20387;-53
2020/12/23 10:32:22;;;;;;;10.63;8.10;;;21.10;39.00;;;;;;4994894;28;20390;-54
2020/12/23 10:34:48;;;;;;;9.63;7.50;;;21.10;39.00;;;;;;4995375;28;20517;-53
2020/12/23 10:37:15;;;;;;;10.73;7.60;;;21.10;39.00;;;;;;4995190;28;20759;-53
2020/12/23 10:39:41;;;;;;;8.15;6.93;;;21.20;39.50;;;;;;4994892;28;20398;-53
2020/12/23 10:42:06;;;;;;;12.07;6.87;;;21.20;38.80;;;;;;4994262;28;20403;-53
2020/12/23 10:44:32;;;;;;;10.15;6.40;;;21.20;38.90;;;;;;4993918;28;20910;-53
2020/12/23 10:46:59;;;;;;;7.90;6.80;;;21.10;38.90;;;;;;4994941;28;20457;-53
2020/12/23 10:49:27;;;;;;;7.78;6.45;;;21.20;38.80;;;;;;4995130;28;20418;-53
2020/12/23 10:51:55;;;;;;;6.97;6.28;;;21.10;38.80;;;;;;4995011;28;20386;-53
2020/12/23 10:54:21;;;;;;;7.20;6.00;;;21.20;38.50;;;;;;4994535;28;20451;-53
2020/12/23 10:56:47;;;;;;;10.50;7.20;;;21.10;38.80;;;;;;4994953;28;20778;-53
2020/12/23 10:59:12;;;;;;;20.02;15.07;;;21.10;39.20;;;;;;4993944;28;20867;-53
2020/12/23 11:01:38;;;;;;;43.57;37.57;;;21.10;38.60;;;;;;4996344;28;20474;-54
2020/12/23 11:04:05;;;;;;;40.92;36.58;;;21.10;38.20;;;;;;5001183;28;20406;-54
2020/12/23 11:06:31;;;;;;;36.35;32.20;;;21.10;38.20;;;;;;5003236;28;20429;-53
2020/12/23 11:08:57;;;;;;;27.93;24.90;;;21.10;38.00;;;;;;4995673;28;20394;-53
2020/12/23 11:11:23;;;;;;;22.63;20.33;;;21.10;38.00;;;;;;4994662;28;20387;-53
2020/12/23 11:13:48;;;;;;;24.83;21.52;;;21.10;37.90;;;;;;4994565;28;20389;-53
2020/12/23 11:16:18;;;;;;;19.33;17.27;;;21.10;37.90;;;;;;4993328;28;20445;-53
2020/12/23 11:18:45;;;;;;;18.92;16.95;;;21.10;37.90;;;;;;4994644;28;20466;-53
2020/12/23 11:21:12;;;;;;;18.55;16.65;;;21.10;37.80;;;;;;5005634;28;20451;-53
2020/12/23 11:23:38;;;;;;;17.42;15.60;;;21.10;37.90;;;;;;5014045;28;20480;-53
2020/12/23 11:26:04;;;;;;;16.77;15.02;;;21.20;37.90;;;;;;5013544;28;20447;-53
2020/12/23 11:28:32;;;;;;;16.67;15.02;;;21.20;37.80;;;;;;5013979;28;20424;-53
2020/12/23 11:30:59;;;;;;;15.40;13.65;;;21.30;37.80;;;;;;5013747;28;20412;-53
2020/12/23 11:33:28;;;;;;;14.18;12.77;;;21.20;37.70;;;;;;5013269;28;20452;-53
2020/12/23 11:35:55;;;;;;;13.82;12.43;;;21.30;37.70;;;;;;5013437;28;20424;-51
2020/12/23 11:38:21;;;;;;;13.48;12.05;;;21.30;37.60;;;;;;5013102;28;20381;-51
2020/12/23 11:40:47;;;;;;;13.20;11.90;;;21.30;37.60;;;;;;5013892;28;20385;-51
2020/12/23 11:43:13;;;;;;;12.63;11.35;;;21.30;37.60;;;;;;5013686;28;20784;-51
2020/12/23 11:45:38;;;;;;;12.27;11.00;;;21.30;37.60;;;;;;5013639;28;20413;-50
2020/12/23 11:48:04;;;;;;;11.07;9.98;;;21.30;37.60;;;;;;4995743;28;20405;-51
2020/12/23 11:50:29;;;;;;;10.90;9.80;;;21.30;37.60;;;;;;5013317;28;20381;-51
2020/12/23 11:52:55;;;;;;;12.23;9.88;;;21.30;37.60;;;;;;4995659;28;20443;-51
2020/12/23 11:55:21;;;;;;;23.45;21.05;;;21.30;37.70;;;;;;5013409;28;20447;-51
2020/12/23 11:57:46;;;;;;;21.20;19.20;;;21.20;37.70;;;;;;5013252;28;20893;-51
2020/12/23 12:00:12;;;;;;;18.60;16.67;;;21.20;37.80;;;;;;5012453;28;20948;-51
2020/12/23 12:02:39;;;;;;;16.55;14.95;;;21.10;37.80;;;;;;5012920;28;20415;-51
2020/12/23 12:05:07;;;;;;;16.17;14.57;;;21.10;38.00;;;;;;5013165;28;20384;-51
2020/12/23 12:07:33;;;;;;;16.58;14.90;;;21.10;38.00;;;;;;5013064;28;20762;-51
2020/12/23 12:09:58;;;;;;;16.23;14.63;;;21.10;38.00;;;;;;5013006;28;20942;-51
2020/12/23 12:12:27;;;;;;;16.43;14.80;;;21.10;38.00;;;;;;5012612;28;20785;-51
2020/12/23 12:14:53;;;;;;;20.38;13.85;;;21.10;38.00;;;;;;4995401;28;20472;-51
2020/12/23 12:17:18;;;;;;;20.03;13.87;;;21.10;38.10;;;;;;5013007;28;20480;-51
2020/12/23 12:19:44;;;;;;;17.13;13.75;;;21.10;38.20;;;;;;5013106;28;20392;-51
2020/12/23 12:22:09;;;;;;;16.13;13.67;;;21.10;38.20;;;;;;5012370;28;20393;-51
2020/12/23 12:24:36;;;;;;;19.77;13.55;;;21.10;38.20;;;;;;5012524;28;20393;-51
2020/12/23 12:27:01;;;;;;;21.65;12.35;;;21.10;38.30;;;;;;5012713;28;20443;-51
2020/12/23 12:29:27;;;;;;;31.23;10.90;;;21.10;38.70;;;;;;5012247;28;20742;-51
2020/12/23 12:31:53;;;;;;;23.40;11.30;;;21.10;39.90;;;;;;5012647;28;20548;-54
2020/12/23 12:34:18;;;;;;;16.10;10.30;;;21.10;40.20;;;;;;5012074;28;20786;-53
2020/12/23 12:36:44;;;;;;;19.67;10.35;;;21.20;39.80;;;;;;5012197;28;20475;-55
2020/12/23 12:39:10;;;;;;;20.90;10.55;;;21.20;40.50;;;;;;5012077;28;20392;-55
2020/12/23 12:41:35;;;;;;;17.53;10.90;;;21.30;41.20;;;;;;5012603;28;20396;-55
2020/12/23 12:44:01;;;;;;;23.42;11.27;;;21.30;41.60;;;;;;5011962;28;20744;-55
2020/12/23 12:46:27;;;;;;;16.33;10.27;;;21.30;42.60;;;;;;5010887;28;20881;-54